sensor_id;sensor_type;location;lat;lon;timestamp;pressure;altitude;pressure_sealevel;temperature;humidity
26775;BME280;14362;51.902;7.626;2022-11-30T00:02:59;101543.91;;;7.38;100.00
26775;BME280;14362;51.902;7.626;2022-11-30T00:07:01;101539.72;;;7.40;100.00
26775;BME280;14362;51.902;7.626;2022-11-30T00:11:06;101539.47;;;7.42;100.00
26775;BME280;14362;51.902;7.626;2022-11-30T00:15:08;101536.94;;;7.45;100.00
26775;BME280;14362;51.902;7.626;2022-11-30T00:19:12;101536.13;;;7.40;100.00
26775;BME280;14362;51.902;7.626;2022-11-30T00:23:14;101535.34;;;7.34;100.00
26775;BME280;14362;51.902;7.626;2022-11-30T00:27:15;101531.22;;;7.22;100.00
26775;BME280;14362;51.902;7.626;2022-11-30T00:31:17;101540.34;;;7.27;100.00
26775;BME280;14362;51.902;7.626;2022-11-30T00:35:20;101547.06;;;7.16;100.00
26775;BME280;14362;51.902;7.626;2022-11-30T00:39:21;101552.31;;;7.13;100.00
26775;BME280;14362;51.902;7.626;2022-11-30T00:43:23;101541.53;;;7.07;100.00
26775;BME280;14362;51.902;7.626;2022-11-30T00:47:24;101546.56;;;6.95;100.00
26775;BME280;14362;51.902;7.626;2022-11-30T00:51:27;101538.78;;;6.97;100.00
26775;BME280;14362;51.902;7.626;2022-11-30T00:55:28;101541.28;;;6.93;100.00
26775;BME280;14362;51.902;7.626;2022-11-30T00:59:30;101538.19;;;7.00;100.00
26775;BME280;14362;51.902;7.626;2022-11-30T01:03:32;101548.72;;;7.03;100.00
26775;BME280;14362;51.902;7.626;2022-11-30T01:07:35;101539.06;;;6.95;100.00
26775;BME280;14362;51.902;7.626;2022-11-30T01:11:37;101544.31;;;7.02;100.00
26775;BME280;14362;51.902;7.626;2022-11-30T01:15:40;101543.53;;;6.86;100.00
26775;BME280;14362;51.902;7.626;2022-11-30T01:19:43;101547.66;;;6.89;100.00
26775;BME280;14362;51.902;7.626;2022-11-30T01:23:46;101547.91;;;6.97;100.00
26775;BME280;14362;51.902;7.626;2022-11-30T01:27:48;101547.91;;;6.97;100.00
26775;BME280;14362;51.902;7.626;2022-11-30T01:31:49;101541.56;;;6.97;100.00
26775;BME280;14362;51.902;7.626;2022-11-30T01:35:58;101546.53;;;7.00;100.00
26775;BME280;14362;51.902;7.626;2022-11-30T01:40:01;101555.38;;;7.02;100.00
26775;BME280;14362;51.902;7.626;2022-11-30T01:48:41;101561.47;;;7.04;100.00
26775;BME280;14362;51.902;7.626;2022-11-30T01:52:46;101560.66;;;7.03;100.00
26775;BME280;14362;51.902;7.626;2022-11-30T01:56:52;101559.81;;;7.03;100.00
26775;BME280;14362;51.902;7.626;2022-11-30T02:00:55;101556.22;;;7.02;100.00
26775;BME280;14362;51.902;7.626;2022-11-30T02:04:57;101557.91;;;6.93;100.00
26775;BME280;14362;51.902;7.626;2022-11-30T02:09:00;101551.00;;;6.96;100.00
26775;BME280;14362;51.902;7.626;2022-11-30T02:13:28;101556.78;;;6.99;100.00
26775;BME280;14362;51.902;7.626;2022-11-30T02:17:41;101561.78;;;7.02;100.00
26775;BME280;14362;51.902;7.626;2022-11-30T02:21:48;101564.56;;;6.97;100.00
26775;BME280;14362;51.902;7.626;2022-11-30T02:25:58;101572.00;;;7.02;100.00
26775;BME280;14362;51.902;7.626;2022-11-30T02:30:08;101566.22;;;6.98;100.00
26775;BME280;14362;51.902;7.626;2022-11-30T02:34:13;101571.75;;;6.98;100.00
26775;BME280;14362;51.902;7.626;2022-11-30T02:38:18;101570.66;;;6.99;100.00
26775;BME280;14362;51.902;7.626;2022-11-30T02:42:20;101565.09;;;6.89;100.00
26775;BME280;14362;51.902;7.626;2022-11-30T02:46:28;101562.63;;;6.88;100.00
26775;BME280;14362;51.902;7.626;2022-11-30T02:50:37;101558.75;;;6.89;100.00
26775;BME280;14362;51.902;7.626;2022-11-30T02:54:40;101550.72;;;6.82;100.00
26775;BME280;14362;51.902;7.626;2022-11-30T02:58:41;101549.88;;;6.87;100.00
26775;BME280;14362;51.902;7.626;2022-11-30T03:02:44;101553.50;;;6.82;100.00
26775;BME280;14362;51.902;7.626;2022-11-30T03:06:45;101560.97;;;6.87;100.00
26775;BME280;14362;51.902;7.626;2022-11-30T03:10:46;101556.28;;;6.82;100.00
26775;BME280;14362;51.902;7.626;2022-11-30T03:14:48;101555.72;;;6.85;100.00
26775;BME280;14362;51.902;7.626;2022-11-30T03:18:51;101559.84;;;6.83;100.00
26775;BME280;14362;51.902;7.626;2022-11-30T03:22:52;101571.53;;;6.75;100.00
26775;BME280;14362;51.902;7.626;2022-11-30T03:26:53;101570.69;;;6.84;100.00
26775;BME280;14362;51.902;7.626;2022-11-30T03:30:55;101570.66;;;6.89;100.00
26775;BME280;14362;51.902;7.626;2022-11-30T03:34:58;101570.38;;;6.91;100.00
26775;BME280;14362;51.902;7.626;2022-11-30T03:38:59;101570.13;;;6.87;100.00
26775;BME280;14362;51.902;7.626;2022-11-30T03:43:01;101568.16;;;6.93;100.00
26775;BME280;14362;51.902;7.626;2022-11-30T03:47:02;101573.16;;;6.91;100.00
26775;BME280;14362;51.902;7.626;2022-11-30T03:51:05;101572.34;;;6.85;100.00
26775;BME280;14362;51.902;7.626;2022-11-30T03:55:07;101572.91;;;6.82;100.00
26775;BME280;14362;51.902;7.626;2022-11-30T03:59:09;101576.22;;;6.84;100.00
26775;BME280;14362;51.902;7.626;2022-11-30T04:03:10;101578.69;;;6.86;100.00
26775;BME280;14362;51.902;7.626;2022-11-30T04:07:13;101578.97;;;6.89;100.00
26775;BME280;14362;51.902;7.626;2022-11-30T04:11:15;101575.09;;;6.90;100.00
26775;BME280;14362;51.902;7.626;2022-11-30T04:15:16;101573.16;;;6.86;100.00
26775;BME280;14362;51.902;7.626;2022-11-30T04:19:18;101575.13;;;6.80;100.00
26775;BME280;14362;51.902;7.626;2022-11-30T04:23:21;101566.53;;;6.77;100.00
26775;BME280;14362;51.902;7.626;2022-11-30T04:27:23;101565.97;;;6.80;100.00
26775;BME280;14362;51.902;7.626;2022-11-30T04:31:24;101559.84;;;6.83;100.00
26775;BME280;14362;51.902;7.626;2022-11-30T04:35:26;101559.84;;;6.88;100.00
26775;BME280;14362;51.902;7.626;2022-11-30T04:39:31;101564.03;;;6.85;100.00
26775;BME280;14362;51.902;7.626;2022-11-30T04:43:32;101567.06;;;6.84;100.00
26775;BME280;14362;51.902;7.626;2022-11-30T04:47:34;101570.69;;;6.84;100.00
26775;BME280;14362;51.902;7.626;2022-11-30T04:51:35;101573.19;;;6.76;100.00
26775;BME280;14362;51.902;7.626;2022-11-30T04:55:38;101577.34;;;6.83;100.00
26775;BME280;14362;51.902;7.626;2022-11-30T04:59:39;101577.88;;;6.80;100.00
26775;BME280;14362;51.902;7.626;2022-11-30T05:03:41;101576.50;;;6.88;100.00
26775;BME280;14362;51.902;7.626;2022-11-30T05:07:42;101585.91;;;6.92;100.00
26775;BME280;14362;51.902;7.626;2022-11-30T05:11:45;101583.13;;;6.92;100.00
26775;BME280;14362;51.902;7.626;2022-11-30T05:15:47;101591.44;;;6.87;100.00
26775;BME280;14362;51.902;7.626;2022-11-30T05:19:49;101593.66;;;6.80;100.00
26775;BME280;14362;51.902;7.626;2022-11-30T05:23:50;101596.44;;;6.85;100.00
26775;BME280;14362;51.902;7.626;2022-11-30T05:27:53;101598.38;;;6.89;100.00
26775;BME280;14362;51.902;7.626;2022-11-30T05:31:54;101598.66;;;6.88;100.00
26775;BME280;14362;51.902;7.626;2022-11-30T05:35:56;101601.97;;;6.90;100.00
26775;BME280;14362;51.902;7.626;2022-11-30T05:39:57;101608.34;;;6.90;100.00
26775;BME280;14362;51.902;7.626;2022-11-30T05:44:00;101610.84;;;6.92;100.00
26775;BME280;14362;51.902;7.626;2022-11-30T05:48:01;101608.34;;;6.90;100.00
26775;BME280;14362;51.902;7.626;2022-11-30T05:52:03;101611.09;;;6.90;100.00
26775;BME280;14362;51.902;7.626;2022-11-30T05:56:06;101602.53;;;6.92;100.00
26775;BME280;14362;51.902;7.626;2022-11-30T06:00:10;101618.59;;;6.90;100.00
26775;BME280;14362;51.902;7.626;2022-11-30T06:04:11;101622.75;;;6.92;100.00
26775;BME280;14362;51.902;7.626;2022-11-30T06:08:13;101621.94;;;6.92;100.00
26775;BME280;14362;51.902;7.626;2022-11-30T06:12:14;101624.72;;;6.92;100.00
26775;BME280;14362;51.902;7.626;2022-11-30T06:16:17;101626.66;;;6.86;100.00
26775;BME280;14362;51.902;7.626;2022-11-30T06:20:18;101632.75;;;6.88;100.00
26775;BME280;14362;51.902;7.626;2022-11-30T06:24:20;101636.06;;;6.90;100.00
26775;BME280;14362;51.902;7.626;2022-11-30T06:28:21;101637.44;;;6.83;100.00
26775;BME280;14362;51.902;7.626;2022-11-30T06:32:24;101639.13;;;6.94;100.00
26775;BME280;14362;51.902;7.626;2022-11-30T06:36:26;101638.31;;;6.88;100.00
26775;BME280;14362;51.902;7.626;2022-11-30T06:40:27;101641.63;;;6.85;100.00
26775;BME280;14362;51.902;7.626;2022-11-30T06:44:29;101639.66;;;6.81;100.00
26775;BME280;14362;51.902;7.626;2022-11-30T06:48:31;101635.53;;;6.83;100.00
26775;BME280;14362;51.902;7.626;2022-11-30T06:52:33;101639.13;;;6.89;100.00
26775;BME280;14362;51.902;7.626;2022-11-30T06:56:35;101633.00;;;6.82;100.00
26775;BME280;14362;51.902;7.626;2022-11-30T07:00:36;101644.38;;;6.80;100.00
26775;BME280;14362;51.902;7.626;2022-11-30T07:04:39;101644.94;;;6.87;100.00
26775;BME280;14362;51.902;7.626;2022-11-30T07:08:41;101645.75;;;6.83;100.00
26775;BME280;14362;51.902;7.626;2022-11-30T07:12:43;101643.56;;;6.90;100.00
26775;BME280;14362;51.902;7.626;2022-11-30T07:16:45;101650.47;;;6.82;100.00
26775;BME280;14362;51.902;7.626;2022-11-30T07:20:48;101647.97;;;6.81;100.00
26775;BME280;14362;51.902;7.626;2022-11-30T07:24:49;101657.41;;;6.85;100.00
26775;BME280;14362;51.902;7.626;2022-11-30T07:29:08;101661.56;;;6.87;100.00
26775;BME280;14362;51.902;7.626;2022-11-30T07:33:10;101660.47;;;6.83;100.00
26775;BME280;14362;51.902;7.626;2022-11-30T07:37:13;101663.75;;;6.90;100.00
26775;BME280;14362;51.902;7.626;2022-11-30T07:41:14;101669.88;;;6.87;100.00
26775;BME280;14362;51.902;7.626;2022-11-30T07:45:16;101674.03;;;6.90;100.00
26775;BME280;14362;51.902;7.626;2022-11-30T07:49:17;101682.34;;;6.95;100.00
26775;BME280;14362;51.902;7.626;2022-11-30T07:53:20;101685.66;;;6.87;100.00
26775;BME280;14362;51.902;7.626;2022-11-30T07:57:21;101687.91;;;6.90;100.00
26775;BME280;14362;51.902;7.626;2022-11-30T08:01:27;101693.41;;;6.80;100.00
26775;BME280;14362;51.902;7.626;2022-11-30T08:05:29;101698.72;;;6.86;100.00
26775;BME280;14362;51.902;7.626;2022-11-30T08:09:31;101695.66;;;6.78;100.00
26775;BME280;14362;51.902;7.626;2022-11-30T08:13:33;101699.50;;;6.82;100.00
26775;BME280;14362;51.902;7.626;2022-11-30T08:17:34;101703.38;;;6.81;100.00
26775;BME280;14362;51.902;7.626;2022-11-30T08:21:36;101708.94;;;6.86;100.00
26775;BME280;14362;51.902;7.626;2022-11-30T08:25:39;101713.09;;;6.78;100.00
26775;BME280;14362;51.902;7.626;2022-11-30T08:29:40;101725.28;;;6.77;100.00
26775;BME280;14362;51.902;7.626;2022-11-30T08:33:42;101721.41;;;6.78;100.00
26775;BME280;14362;51.902;7.626;2022-11-30T08:37:44;101720.31;;;6.79;100.00
26775;BME280;14362;51.902;7.626;2022-11-30T08:41:46;101717.81;;;6.78;100.00
26775;BME280;14362;51.902;7.626;2022-11-30T08:45:48;101720.00;;;6.81;100.00
26775;BME280;14362;51.902;7.626;2022-11-30T08:49:49;101729.19;;;6.81;100.00
26775;BME280;14362;51.902;7.626;2022-11-30T08:53:51;101725.31;;;6.82;100.00
26775;BME280;14362;51.902;7.626;2022-11-30T08:57:53;101737.19;;;6.83;100.00
26775;BME280;14362;51.902;7.626;2022-11-30T09:01:55;101740.53;;;6.80;100.00
26775;BME280;14362;51.902;7.626;2022-11-30T09:06:02;101745.22;;;6.74;100.00
26775;BME280;14362;51.902;7.626;2022-11-30T09:10:05;101746.06;;;6.80;100.00
26775;BME280;14362;51.902;7.626;2022-11-30T09:14:08;101751.91;;;6.83;100.00
26775;BME280;14362;51.902;7.626;2022-11-30T09:18:10;101754.97;;;6.92;100.00
26775;BME280;14362;51.902;7.626;2022-11-30T09:22:12;101755.78;;;6.92;100.00
26775;BME280;14362;51.902;7.626;2022-11-30T09:26:15;101760.22;;;6.83;100.00
26775;BME280;14362;51.902;7.626;2022-11-30T09:30:19;101763.81;;;6.89;100.00
26775;BME280;14362;51.902;7.626;2022-11-30T09:34:20;101758.84;;;6.91;100.00
26775;BME280;14362;51.902;7.626;2022-11-30T09:38:22;101751.34;;;6.91;100.00
26775;BME280;14362;51.902;7.626;2022-11-30T09:42:36;101749.41;;;6.87;100.00
26775;BME280;14362;51.902;7.626;2022-11-30T09:46:42;101750.53;;;6.91;100.00
26775;BME280;14362;51.902;7.626;2022-11-30T09:50:44;101746.38;;;6.83;100.00
26775;BME280;14362;51.902;7.626;2022-11-30T09:54:47;101746.63;;;6.87;100.00
26775;BME280;14362;51.902;7.626;2022-11-30T09:58:52;101753.56;;;6.79;100.00
26775;BME280;14362;51.902;7.626;2022-11-30T10:02:57;101757.19;;;6.90;100.00
26775;BME280;14362;51.902;7.626;2022-11-30T10:07:12;101759.13;;;6.99;100.00
26775;BME280;14362;51.902;7.626;2022-11-30T10:11:43;101755.78;;;6.92;100.00
26775;BME280;14362;51.902;7.626;2022-11-30T10:15:47;101758.00;;;6.90;100.00
26775;BME280;14362;51.902;7.626;2022-11-30T10:20:04;101745.25;;;6.94;100.00
26775;BME280;14362;51.902;7.626;2022-11-30T10:24:20;101749.13;;;6.93;100.00
26775;BME280;14362;51.902;7.626;2022-11-30T10:28:35;101751.63;;;6.90;100.00
26775;BME280;14362;51.902;7.626;2022-11-30T10:32:43;101742.47;;;6.89;100.00
26775;BME280;14362;51.902;7.626;2022-11-30T10:36:51;101749.41;;;6.92;100.00
26775;BME280;14362;51.902;7.626;2022-11-30T10:40:56;101753.56;;;6.89;100.00
26775;BME280;14362;51.902;7.626;2022-11-30T10:45:03;101751.06;;;6.83;100.00
26775;BME280;14362;51.902;7.626;2022-11-30T10:49:06;101756.63;;;6.88;100.00
26775;BME280;14362;51.902;7.626;2022-11-30T10:53:13;101748.00;;;6.74;100.00
26775;BME280;14362;51.902;7.626;2022-11-30T10:57:15;101751.06;;;6.83;100.00
26775;BME280;14362;51.902;7.626;2022-11-30T11:01:31;101748.84;;;6.85;100.00
26775;BME280;14362;51.902;7.626;2022-11-30T11:05:33;101742.22;;;6.91;100.00
26775;BME280;14362;51.902;7.626;2022-11-30T11:09:37;101739.44;;;6.86;100.00
26775;BME280;14362;51.902;7.626;2022-11-30T11:13:42;101733.31;;;6.84;100.00
26775;BME280;14362;51.902;7.626;2022-11-30T11:17:43;101736.09;;;6.84;100.00
26775;BME280;14362;51.902;7.626;2022-11-30T11:21:45;101748.56;;;6.76;100.00
26775;BME280;14362;51.902;7.626;2022-11-30T11:25:50;101744.97;;;6.76;100.00
26775;BME280;14362;51.902;7.626;2022-11-30T11:30:00;101745.53;;;6.78;100.00
26775;BME280;14362;51.902;7.626;2022-11-30T11:34:03;101749.66;;;6.75;100.00
26775;BME280;14362;51.902;7.626;2022-11-30T11:38:20;101752.72;;;6.74;100.00
26775;BME280;14362;51.902;7.626;2022-11-30T11:42:25;101750.50;;;6.71;100.00
26775;BME280;14362;51.902;7.626;2022-11-30T11:46:27;101743.03;;;6.81;100.00
26775;BME280;14362;51.902;7.626;2022-11-30T11:50:30;101753.00;;;6.77;100.00
26775;BME280;14362;51.902;7.626;2022-11-30T11:54:35;101738.88;;;6.74;100.00
26775;BME280;14362;51.902;7.626;2022-11-30T11:58:44;101744.97;;;6.71;100.00
26775;BME280;14362;51.902;7.626;2022-11-30T12:02:51;101747.44;;;6.77;100.00
26775;BME280;14362;51.902;7.626;2022-11-30T12:06:57;101745.25;;;6.79;100.00
26775;BME280;14362;51.902;7.626;2022-11-30T12:11:01;101753.84;;;6.78;100.00
26775;BME280;14362;51.902;7.626;2022-11-30T12:15:10;101748.84;;;6.70;100.00
26775;BME280;14362;51.902;7.626;2022-11-30T12:19:15;101759.38;;;6.73;100.00
26775;BME280;14362;51.902;7.626;2022-11-30T12:23:32;101762.69;;;6.75;100.00
26775;BME280;14362;51.902;7.626;2022-11-30T12:27:42;101762.13;;;6.68;100.00
26775;BME280;14362;51.902;7.626;2022-11-30T12:32:15;101759.34;;;6.63;100.00
26775;BME280;14362;51.902;7.626;2022-11-30T12:36:26;101762.69;;;6.70;100.00
26775;BME280;14362;51.902;7.626;2022-11-30T12:40:35;101768.50;;;6.68;100.00
26775;BME280;14362;51.902;7.626;2022-11-30T12:44:47;101756.56;;;6.63;100.00
26775;BME280;14362;51.902;7.626;2022-11-30T12:49:12;101758.25;;;6.69;100.00
26775;BME280;14362;51.902;7.626;2022-11-30T12:53:20;101761.28;;;6.72;100.00
26775;BME280;14362;51.902;7.626;2022-11-30T12:57:25;101764.34;;;6.71;100.00
26775;BME280;14362;51.902;7.626;2022-11-30T13:01:41;101764.06;;;6.67;100.00
26775;BME280;14362;51.902;7.626;2022-11-30T13:05:51;101775.16;;;6.72;100.00
26775;BME280;14362;51.902;7.626;2022-11-30T13:09:57;101769.31;;;6.64;100.00
26775;BME280;14362;51.902;7.626;2022-11-30T13:14:03;101772.94;;;6.74;100.00
26775;BME280;14362;51.902;7.626;2022-11-30T13:18:06;101773.47;;;6.61;100.00
26775;BME280;14362;51.902;7.626;2022-11-30T13:22:18;101782.34;;;6.63;100.00
26775;BME280;14362;51.902;7.626;2022-11-30T13:26:26;101773.72;;;6.55;100.00
26775;BME280;14362;51.902;7.626;2022-11-30T13:30:33;101771.25;;;6.58;100.00
26775;BME280;14362;51.902;7.626;2022-11-30T13:34:36;101778.44;;;6.59;100.00
26775;BME280;14362;51.902;7.626;2022-11-30T13:38:39;101789.25;;;6.56;100.00
26775;BME280;14362;51.902;7.626;2022-11-30T13:42:41;101790.94;;;6.67;100.00
26775;BME280;14362;51.902;7.626;2022-11-30T13:46:47;101787.03;;;6.63;100.00
26775;BME280;14362;51.902;7.626;2022-11-30T13:50:49;101787.59;;;6.55;100.00
26775;BME280;14362;51.902;7.626;2022-11-30T13:54:51;101790.59;;;6.53;100.00
26775;BME280;14362;51.902;7.626;2022-11-30T14:03:35;101793.69;;;6.57;100.00
26775;BME280;14362;51.902;7.626;2022-11-30T14:07:38;101799.72;;;6.44;100.00
26775;BME280;14362;51.902;7.626;2022-11-30T14:11:42;101797.50;;;6.46;100.00
26775;BME280;14362;51.902;7.626;2022-11-30T14:15:53;101801.13;;;6.46;100.00
26775;BME280;14362;51.902;7.626;2022-11-30T14:19:58;101793.63;;;6.42;100.00
26775;BME280;14362;51.902;7.626;2022-11-30T14:24:04;101799.16;;;6.37;100.00
26775;BME280;14362;51.902;7.626;2022-11-30T14:28:10;101794.97;;;6.34;100.00
26775;BME280;14362;51.902;7.626;2022-11-30T14:32:19;101798.34;;;6.41;100.00
26775;BME280;14362;51.902;7.626;2022-11-30T14:36:27;101809.66;;;6.35;100.00
26775;BME280;14362;51.902;7.626;2022-11-30T14:40:33;101809.13;;;6.38;100.00
26775;BME280;14362;51.902;7.626;2022-11-30T14:44:39;101821.31;;;6.37;100.00
26775;BME280;14362;51.902;7.626;2022-11-30T14:48:40;101817.41;;;6.33;100.00
26775;BME280;14362;51.902;7.626;2022-11-30T14:52:52;101814.84;;;6.21;100.00
26775;BME280;14362;51.902;7.626;2022-11-30T14:56:59;101822.38;;;6.31;100.00
26775;BME280;14362;51.902;7.626;2022-11-30T15:01:14;101821.00;;;6.33;100.00
26775;BME280;14362;51.902;7.626;2022-11-30T15:05:20;101824.88;;;6.37;100.00
26775;BME280;14362;51.902;7.626;2022-11-30T15:09:25;101821.59;;;6.40;100.00
26775;BME280;14362;51.902;7.626;2022-11-30T15:13:28;101820.19;;;6.38;100.00
26775;BME280;14362;51.902;7.626;2022-11-30T15:17:31;101828.19;;;6.29;100.00
26775;BME280;14362;51.902;7.626;2022-11-30T15:21:33;101821.31;;;6.37;100.00
26775;BME280;14362;51.902;7.626;2022-11-30T15:25:37;101816.03;;;6.30;100.00
26775;BME280;14362;51.902;7.626;2022-11-30T15:29:40;101825.44;;;6.34;100.00
26775;BME280;14362;51.902;7.626;2022-11-30T15:33:46;101824.59;;;6.29;100.00
26775;BME280;14362;51.902;7.626;2022-11-30T15:37:48;101831.78;;;6.30;100.00
26775;BME280;14362;51.902;7.626;2022-11-30T15:41:52;101833.94;;;6.23;100.00
26775;BME280;14362;51.902;7.626;2022-11-30T15:45:55;101843.69;;;6.25;100.00
26775;BME280;14362;51.902;7.626;2022-11-30T15:49:58;101845.88;;;6.23;100.00
26775;BME280;14362;51.902;7.626;2022-11-30T15:53:59;101855.84;;;6.24;100.00
26775;BME280;14362;51.902;7.626;2022-11-30T15:58:01;101852.81;;;6.26;100.00
26775;BME280;14362;51.902;7.626;2022-11-30T16:02:03;101860.56;;;6.29;100.00
26775;BME280;14362;51.902;7.626;2022-11-30T16:06:16;101860.28;;;6.25;100.00
26775;BME280;14362;51.902;7.626;2022-11-30T16:10:22;101856.06;;;6.13;100.00
26775;BME280;14362;51.902;7.626;2022-11-30T16:14:25;101860.53;;;6.19;100.00
26775;BME280;14362;51.902;7.626;2022-11-30T16:18:27;101860.22;;;6.15;100.00
26775;BME280;14362;51.902;7.626;2022-11-30T16:22:30;101869.41;;;6.21;100.00
26775;BME280;14362;51.902;7.626;2022-11-30T16:26:31;101863.88;;;6.21;100.00
26775;BME280;14362;51.902;7.626;2022-11-30T16:30:32;101870.50;;;6.20;100.00
26775;BME280;14362;51.902;7.626;2022-11-30T16:34:34;101872.13;;;6.16;100.00
26775;BME280;14362;51.902;7.626;2022-11-30T16:38:37;101860.84;;;6.27;100.00
26775;BME280;14362;51.902;7.626;2022-11-30T16:42:38;101869.38;;;6.16;100.00
26775;BME280;14362;51.902;7.626;2022-11-30T16:46:40;101867.66;;;6.10;100.00
26775;BME280;14362;51.902;7.626;2022-11-30T16:50:42;101866.00;;;6.09;100.00
26775;BME280;14362;51.902;7.626;2022-11-30T16:54:45;101858.00;;;6.12;100.00
26775;BME280;14362;51.902;7.626;2022-11-30T16:58:46;101866.03;;;6.14;100.00
26775;BME280;14362;51.902;7.626;2022-11-30T17:02:53;101877.97;;;6.19;100.00
26775;BME280;14362;51.902;7.626;2022-11-30T17:06:55;101872.09;;;6.11;100.00
26775;BME280;14362;51.902;7.626;2022-11-30T17:10:59;101874.81;;;6.06;100.00
26775;BME280;14362;51.902;7.626;2022-11-30T17:15:01;101882.88;;;6.07;100.00
26775;BME280;14362;51.902;7.626;2022-11-30T17:19:02;101883.16;;;6.11;100.00
26775;BME280;14362;51.902;7.626;2022-11-30T17:23:04;101888.69;;;6.11;100.00
26775;BME280;14362;51.902;7.626;2022-11-30T17:27:07;101889.75;;;6.05;100.00
26775;BME280;14362;51.902;7.626;2022-11-30T17:31:11;101890.91;;;6.09;100.00
26775;BME280;14362;51.902;7.626;2022-11-30T17:35:12;101896.72;;;6.07;100.00
26775;BME280;14362;51.902;7.626;2022-11-30T17:39:14;101899.16;;;5.99;100.00
26775;BME280;14362;51.902;7.626;2022-11-30T17:43:17;101904.75;;;6.09;100.00
26775;BME280;14362;51.902;7.626;2022-11-30T17:47:18;101899.44;;;6.03;100.00
26775;BME280;14362;51.902;7.626;2022-11-30T17:51:21;101907.28;;;6.15;100.00
26775;BME280;14362;51.902;7.626;2022-11-30T17:55:22;101913.91;;;6.09;100.00
26775;BME280;14362;51.902;7.626;2022-11-30T17:59:25;101932.94;;;6.06;100.00
26775;BME280;14362;51.902;7.626;2022-11-30T18:03:26;101938.19;;;6.03;100.00
26775;BME280;14362;51.902;7.626;2022-11-30T18:07:28;101924.97;;;6.09;100.00
26775;BME280;14362;51.902;7.626;2022-11-30T18:11:29;101933.84;;;6.11;100.00
26775;BME280;14362;51.902;7.626;2022-11-30T18:15:32;101932.75;;;6.12;100.00
26775;BME280;14362;51.902;7.626;2022-11-30T18:19:34;101930.47;;;6.05;100.00
26775;BME280;14362;51.902;7.626;2022-11-30T18:23:35;101942.34;;;6.05;100.00
26775;BME280;14362;51.902;7.626;2022-11-30T18:27:37;101942.34;;;6.00;100.00
26775;BME280;14362;51.902;7.626;2022-11-30T18:31:39;101945.16;;;6.10;100.00
26775;BME280;14362;51.902;7.626;2022-11-30T18:35:41;101940.13;;;6.02;100.00
26775;BME280;14362;51.902;7.626;2022-11-30T18:39:42;101942.09;;;6.07;100.00
26775;BME280;14362;51.902;7.626;2022-11-30T18:43:45;101942.34;;;6.05;100.00
26775;BME280;14362;51.902;7.626;2022-11-30T18:47:48;101947.06;;;6.05;100.00
26775;BME280;14362;51.902;7.626;2022-11-30T18:51:49;101948.97;;;6.04;100.00
26775;BME280;14362;51.902;7.626;2022-11-30T18:55:51;101940.47;;;6.10;100.00
26775;BME280;14362;51.902;7.626;2022-11-30T18:59:52;101946.88;;;6.16;100.00
26775;BME280;14362;51.902;7.626;2022-11-30T19:03:56;101956.22;;;6.10;100.00
26775;BME280;14362;51.902;7.626;2022-11-30T19:07:58;101945.69;;;6.07;100.00
26775;BME280;14362;51.902;7.626;2022-11-30T19:11:59;101949.78;;;6.00;100.00
26775;BME280;14362;51.902;7.626;2022-11-30T19:16:01;101947.94;;;6.10;100.00
26775;BME280;14362;51.902;7.626;2022-11-30T19:20:05;101952.59;;;6.05;100.00
26775;BME280;14362;51.902;7.626;2022-11-30T19:24:08;101952.31;;;6.01;100.00
26775;BME280;14362;51.902;7.626;2022-11-30T19:28:09;101963.03;;;5.93;100.00
26775;BME280;14362;51.902;7.626;2022-11-30T19:32:10;101970.25;;;5.94;100.00
26775;BME280;14362;51.902;7.626;2022-11-30T19:36:15;101968.06;;;6.01;100.00
26775;BME280;14362;51.902;7.626;2022-11-30T19:40:17;101972.56;;;6.07;100.00
26775;BME280;14362;51.902;7.626;2022-11-30T19:44:18;101970.53;;;5.97;100.00
26775;BME280;14362;51.902;7.626;2022-11-30T19:48:19;101981.31;;;5.99;100.00
26775;BME280;14362;51.902;7.626;2022-11-30T19:52:22;101986.34;;;6.02;100.00
26775;BME280;14362;51.902;7.626;2022-11-30T19:56:25;101990.44;;;5.94;100.00
26775;BME280;14362;51.902;7.626;2022-11-30T20:00:26;101996.41;;;6.12;100.00
26775;BME280;14362;51.902;7.626;2022-11-30T20:04:28;101991.06;;;6.01;100.00
26775;BME280;14362;51.902;7.626;2022-11-30T20:08:30;101990.19;;;6.01;100.00
26775;BME280;14362;51.902;7.626;2022-11-30T20:12:32;101994.91;;;6.00;100.00
26775;BME280;14362;51.902;7.626;2022-11-30T20:16:33;102002.59;;;5.93;100.00
26775;BME280;14362;51.902;7.626;2022-11-30T20:20:35;102000.56;;;6.15;100.00
26775;BME280;14362;51.902;7.626;2022-11-30T20:24:37;102002.94;;;6.02;100.00
26775;BME280;14362;51.902;7.626;2022-11-30T20:28:39;102002.13;;;6.01;100.00
26775;BME280;14362;51.902;7.626;2022-11-30T20:32:40;102005.47;;;6.03;100.00
26775;BME280;14362;51.902;7.626;2022-11-30T20:36:43;102004.91;;;6.01;100.00
26775;BME280;14362;51.902;7.626;2022-11-30T20:40:46;102001.78;;;5.93;100.00
26775;BME280;14362;51.902;7.626;2022-11-30T20:44:47;101999.31;;;5.96;100.00
26775;BME280;14362;51.902;7.626;2022-11-30T20:48:50;101996.59;;;6.06;100.00
26775;BME280;14362;51.902;7.626;2022-11-30T20:52:51;102004.31;;;5.99;100.00
26775;BME280;14362;51.902;7.626;2022-11-30T20:56:54;102001.38;;;6.10;100.00
26775;BME280;14362;51.902;7.626;2022-11-30T21:00:57;102004.03;;;6.01;100.00
26775;BME280;14362;51.902;7.626;2022-11-30T21:04:59;102002.94;;;6.02;100.00
26775;BME280;14362;51.902;7.626;2022-11-30T21:09:00;102007.91;;;6.00;100.00
26775;BME280;14362;51.902;7.626;2022-11-30T21:13:03;102002.69;;;6.03;100.00
26775;BME280;14362;51.902;7.626;2022-11-30T21:17:04;102014.63;;;6.08;100.00
26775;BME280;14362;51.902;7.626;2022-11-30T21:21:08;102004.66;;;6.07;100.00
26775;BME280;14362;51.902;7.626;2022-11-30T21:25:10;101998.59;;;6.10;100.00